createdAt,value
2023-04-26T00:00:13.130Z,99207.66
2023-04-26T00:02:22.430Z,99192.31
2023-04-26T00:04:29.770Z,99207.75
2023-04-26T00:06:37.097Z,99212.06
2023-04-26T00:08:46.987Z,99214.75
2023-04-26T00:10:53.041Z,99206.91
2023-04-26T00:12:57.741Z,99211.88
2023-04-26T00:15:03.993Z,99210.09
2023-04-26T00:17:09.198Z,99218.25
2023-04-26T00:19:14.956Z,99227.72
2023-04-26T00:21:21.510Z,99220.56
2023-04-26T00:23:27.383Z,99213.19
2023-04-26T00:25:33.826Z,99205.69
2023-04-26T00:27:39.658Z,99215.50
2023-04-26T00:29:45.315Z,99222.75
2023-04-26T00:31:50.722Z,99225.53
2023-04-26T00:33:56.580Z,99236.50
2023-04-26T00:36:03.322Z,99225.16
2023-04-26T00:38:12.068Z,99218.22
2023-04-26T00:40:18.487Z,99218.22
2023-04-26T00:42:26.900Z,99229.44
2023-04-26T00:44:35.939Z,99217.44
2023-04-26T00:46:42.793Z,99228.91
2023-04-26T00:48:49.402Z,99223.38
2023-04-26T00:50:56.039Z,99219.63
2023-04-26T00:53:03.497Z,99221.59
2023-04-26T00:55:10.827Z,99222.91
2023-04-26T00:57:16.390Z,99228.41
2023-04-26T00:59:23.536Z,99225.88
2023-04-26T01:01:29.548Z,99242.00
2023-04-26T01:03:38.649Z,99229.91
2023-04-26T01:05:48.420Z,99241.91
2023-04-26T01:07:55.093Z,99252.59
2023-04-26T01:10:08.667Z,99248.09
2023-04-26T01:12:15.975Z,99254.03
2023-04-26T01:14:25.111Z,99255.66
2023-04-26T01:16:32.583Z,99244.81
2023-04-26T01:18:36.327Z,99256.38
2023-04-26T01:20:39.083Z,99256.09
2023-04-26T01:22:41.818Z,99251.47
2023-04-26T01:24:51.787Z,99239.88
2023-04-26T01:26:54.994Z,99244.81
2023-04-26T01:28:57.935Z,99253.72
2023-04-26T01:31:00.620Z,99256.47
2023-04-26T01:33:03.185Z,99271.03
2023-04-26T01:35:06.181Z,99254.00
2023-04-26T01:37:08.688Z,99252.56
2023-04-26T01:39:11.914Z,99258.69
2023-04-26T01:41:14.705Z,99255.72
2023-04-26T01:43:20.171Z,99262.69
2023-04-26T01:45:22.615Z,99262.34
2023-04-26T01:47:44.027Z,99269.09
2023-04-26T01:49:47.240Z,99249.59
2023-04-26T01:51:49.994Z,99262.91
2023-04-26T01:53:52.781Z,99272.16
2023-04-26T01:55:56.016Z,99272.53
2023-04-26T01:57:58.704Z,99265.91
2023-04-26T02:00:02.809Z,99273.38
2023-04-26T02:02:19.168Z,99266.91
2023-04-26T02:04:22.112Z,99265.34
2023-04-26T02:06:25.550Z,99274.38
2023-04-26T02:08:28.573Z,99270.69
2023-04-26T02:10:31.645Z,99265.84
2023-04-26T02:12:34.814Z,99257.63
2023-04-26T02:14:38.148Z,99258.81
2023-04-26T02:16:40.847Z,99250.06
2023-04-26T02:18:43.268Z,99256.47
2023-04-26T02:20:46.212Z,99266.72
2023-04-26T02:22:49.248Z,99264.31
2023-04-26T02:24:53.438Z,99262.50
2023-04-26T02:26:56.806Z,99256.03
2023-04-26T02:28:59.730Z,99266.59
2023-04-26T02:31:03.589Z,99259.03
2023-04-26T02:33:06.769Z,99274.72
2023-04-26T02:35:09.923Z,99263.94
2023-04-26T02:37:12.548Z,99270.81
2023-04-26T02:39:15.521Z,99263.44
2023-04-26T02:41:18.952Z,99266.72
2023-04-26T02:43:21.784Z,99283.31
2023-04-26T02:45:25.242Z,99270.00
2023-04-26T02:47:28.344Z,99265.72
2023-04-26T02:49:31.512Z,99268.16
2023-04-26T02:51:34.956Z,99251.53
2023-04-26T02:53:37.771Z,99277.09
2023-04-26T02:55:40.421Z,99283.13
2023-04-26T02:57:43.132Z,99262.59
2023-04-26T02:59:47.349Z,99265.25
2023-04-26T03:01:49.919Z,99261.75
2023-04-26T03:03:52.999Z,99257.84
2023-04-26T03:05:55.765Z,99265.63
2023-04-26T03:07:58.779Z,99277.13
2023-04-26T03:10:02.282Z,99264.09
2023-04-26T03:12:07.741Z,99275.88
2023-04-26T03:14:10.944Z,99279.31
2023-04-26T03:16:13.703Z,99287.72
2023-04-26T03:18:16.328Z,99282.19
2023-04-26T03:20:21.851Z,99277.44
2023-04-26T03:22:24.762Z,99280.53
2023-04-26T03:24:27.526Z,99297.44
2023-04-26T03:26:30.352Z,99291.06
2023-04-26T03:28:32.852Z,99291.06
2023-04-26T03:30:36.436Z,99305.28
2023-04-26T03:32:39.216Z,99301.38
2023-04-26T03:34:42.341Z,99292.34
2023-04-26T03:36:45.519Z,99300.75
2023-04-26T03:38:48.349Z,99296.94
2023-04-26T03:40:52.861Z,99306.84
2023-04-26T03:42:55.552Z,99300.94
2023-04-26T03:44:58.207Z,99298.03
2023-04-26T03:47:01.197Z,99294.19
2023-04-26T03:49:04.153Z,99292.00
2023-04-26T03:51:07.586Z,99305.44
2023-04-26T03:53:10.434Z,99309.81
2023-04-26T03:55:14.002Z,99311.72
2023-04-26T03:57:17.042Z,99314.19
2023-04-26T03:59:20.663Z,99330.72
2023-04-26T04:01:24.257Z,99327.25
2023-04-26T04:03:28.207Z,99310.44
2023-04-26T04:05:30.909Z,99328.41
2023-04-26T04:07:35.058Z,99316.66
2023-04-26T04:09:37.800Z,99308.25
2023-04-26T04:11:40.495Z,99337.66
2023-04-26T04:13:43.729Z,99319.09
2023-04-26T04:15:47.576Z,99332.78
2023-04-26T04:17:50.334Z,99326.66
2023-04-26T04:19:53.329Z,99330.22
2023-04-26T04:21:55.782Z,99345.25
2023-04-26T04:23:58.881Z,99334.63
2023-04-26T04:26:01.666Z,99338.34
2023-04-26T04:28:04.609Z,99336.56
2023-04-26T04:30:09.220Z,99347.16
2023-04-26T04:32:11.733Z,99329.06
2023-04-26T04:34:15.131Z,99349.81
2023-04-26T04:36:18.120Z,99339.88
2023-04-26T04:38:21.886Z,99346.66
2023-04-26T04:40:25.445Z,99344.69
2023-04-26T04:42:29.018Z,99351.69
2023-04-26T04:44:33.226Z,99341.75
2023-04-26T04:46:36.133Z,99352.94
2023-04-26T04:48:39.206Z,99352.34
2023-04-26T04:50:45.405Z,99361.53
2023-04-26T04:52:49.347Z,99370.75
2023-04-26T04:54:51.865Z,99386.53
2023-04-26T04:56:54.263Z,99373.59
2023-04-26T04:58:56.798Z,99374.97
2023-04-26T05:01:01.505Z,99375.94
2023-04-26T05:03:20.011Z,99373.22
2023-04-26T05:05:23.720Z,99368.16
2023-04-26T05:07:27.935Z,99374.50
2023-04-26T05:09:31.998Z,99375.16
2023-04-26T05:11:35.324Z,99383.25
2023-04-26T05:13:39.688Z,99382.94
2023-04-26T05:15:42.537Z,99386.03
2023-04-26T05:17:45.097Z,99367.66
2023-04-26T05:20:07.652Z,99384.88
2023-04-26T05:22:10.958Z,99381.75
2023-04-26T05:24:13.594Z,99400.00
2023-04-26T05:26:17.639Z,99394.84
2023-04-26T05:28:29.378Z,99409.25
2023-04-26T05:30:53.756Z,99399.50
2023-04-26T05:33:16.568Z,99406.38
2023-04-26T05:35:25.139Z,99405.03
2023-04-26T05:37:28.052Z,99404.63
2023-04-26T05:39:30.869Z,99414.06
2023-04-26T05:41:33.657Z,99417.53
2023-04-26T05:43:37.733Z,99418.97
2023-04-26T05:45:41.590Z,99414.25
2023-04-26T05:47:44.618Z,99424.25
2023-04-26T05:49:47.424Z,99418.44
2023-04-26T05:51:50.121Z,99418.97
2023-04-26T05:53:52.955Z,99414.13
2023-04-26T05:55:56.137Z,99420.25
2023-04-26T05:57:59.193Z,99415.41
2023-04-26T06:00:04.059Z,99414.34
2023-04-26T06:02:16.453Z,99413.81
2023-04-26T06:04:19.290Z,99426.66
2023-04-26T06:06:36.070Z,99438.09
2023-04-26T06:08:39.640Z,99411.97
2023-04-26T06:10:42.344Z,99425.81
2023-04-26T06:12:45.744Z,99424.38
2023-04-26T06:14:48.298Z,99436.09
2023-04-26T06:16:56.487Z,99444.88
2023-04-26T06:18:59.389Z,99439.66
2023-04-26T06:21:04.705Z,99428.22
2023-04-26T06:23:07.825Z,99440.19
2023-04-26T06:25:10.861Z,99436.50
2023-04-26T06:27:14.158Z,99433.03
2023-04-26T06:29:22.269Z,99431.56
2023-04-26T06:31:24.989Z,99431.69
2023-04-26T06:33:27.781Z,99432.31
2023-04-26T06:35:31.639Z,99440.28
2023-04-26T06:37:35.295Z,99448.00
2023-04-26T06:39:40.980Z,99434.56
2023-04-26T06:41:43.924Z,99443.94
2023-04-26T06:43:48.691Z,99437.41
2023-04-26T06:45:56.295Z,99437.50
2023-04-26T06:48:01.209Z,99443.25
2023-04-26T06:50:05.173Z,99439.28
2023-04-26T06:52:09.335Z,99438.28
2023-04-26T06:54:13.512Z,99441.53
2023-04-26T06:56:16.489Z,99445.97
2023-04-26T06:58:18.890Z,99452.84
2023-04-26T07:00:22.660Z,99450.78
2023-04-26T07:02:25.653Z,99460.88
2023-04-26T07:04:28.663Z,99448.03
2023-04-26T07:06:32.445Z,99448.22
2023-04-26T07:08:35.302Z,99455.81
2023-04-26T07:10:39.964Z,99440.03
2023-04-26T07:12:42.637Z,99449.31
2023-04-26T07:14:45.429Z,99439.59
2023-04-26T07:16:48.384Z,99451.06
2023-04-26T07:18:53.136Z,99452.50
2023-04-26T07:20:56.145Z,99440.72
2023-04-26T07:22:58.902Z,99448.31
2023-04-26T07:25:01.889Z,99441.50
2023-04-26T07:27:05.067Z,99446.94
2023-04-26T07:29:07.702Z,99445.06
2023-04-26T07:31:11.042Z,99450.13
2023-04-26T07:33:14.241Z,99460.34
2023-04-26T07:35:17.129Z,99461.06
2023-04-26T07:37:21.293Z,99451.41
2023-04-26T07:39:25.021Z,99447.50
2023-04-26T07:41:28.291Z,99447.06
2023-04-26T07:43:31.601Z,99426.19
2023-04-26T07:45:34.907Z,99459.16
2023-04-26T07:47:38.245Z,99452.13
2023-04-26T07:49:41.715Z,99447.13
2023-04-26T07:51:46.259Z,99443.75
2023-04-26T07:53:49.575Z,99450.56
2023-04-26T07:55:52.453Z,99455.72
2023-04-26T07:57:55.140Z,99457.59
2023-04-26T07:59:58.907Z,99453.25
2023-04-26T08:02:02.181Z,99448.72
2023-04-26T08:04:05.908Z,99454.22
2023-04-26T08:06:09.610Z,99456.50
2023-04-26T08:08:13.101Z,99457.13
2023-04-26T08:10:16.355Z,99453.22
2023-04-26T08:12:19.483Z,99459.81
2023-04-26T08:14:23.720Z,99456.22
2023-04-26T08:16:27.216Z,99443.53
2023-04-26T08:18:30.231Z,99470.16
2023-04-26T08:20:33.572Z,99451.50
2023-04-26T08:22:36.547Z,99456.78
2023-04-26T08:24:40.528Z,99474.97
2023-04-26T08:26:44.083Z,99469.75
2023-04-26T08:28:47.494Z,99459.63
2023-04-26T08:30:50.938Z,99460.78
2023-04-26T08:32:54.799Z,99457.38
2023-04-26T08:34:57.955Z,99464.41
2023-04-26T08:37:01.342Z,99473.97
2023-04-26T08:39:05.399Z,99479.06
2023-04-26T08:41:14.300Z,99470.09
2023-04-26T08:43:18.031Z,99467.81
2023-04-26T08:45:22.234Z,99466.53
2023-04-26T08:47:50.472Z,99485.50
2023-04-26T08:50:00.429Z,99465.19
2023-04-26T08:52:05.855Z,99460.81
2023-04-26T08:54:10.888Z,99464.78
2023-04-26T08:56:15.078Z,99474.41
2023-04-26T08:58:20.079Z,99471.66
2023-04-26T09:00:23.987Z,99467.56
2023-04-26T09:02:28.023Z,99463.41
2023-04-26T09:04:32.907Z,99458.09
2023-04-26T09:06:37.918Z,99476.63
2023-04-26T09:08:43.962Z,99462.28
2023-04-26T09:10:47.972Z,99471.47
2023-04-26T09:12:55.137Z,99464.50
2023-04-26T09:14:58.993Z,99468.59
2023-04-26T09:17:02.515Z,99465.88
2023-04-26T09:19:05.788Z,99466.53
2023-04-26T09:21:09.872Z,99473.22
2023-04-26T09:23:17.663Z,99471.78
2023-04-26T09:25:30.119Z,99484.38
2023-04-26T09:27:38.819Z,99478.41
2023-04-26T09:29:42.157Z,99470.41
2023-04-26T09:31:50.339Z,99474.69
2023-04-26T09:34:02.850Z,99471.25
2023-04-26T09:36:13.887Z,99471.81
2023-04-26T09:38:18.839Z,99485.84
2023-04-26T09:40:24.688Z,99469.63
2023-04-26T09:42:30.140Z,99478.25
2023-04-26T09:44:35.792Z,99480.03
2023-04-26T09:46:41.713Z,99480.69
2023-04-26T09:48:52.339Z,99477.03
2023-04-26T09:51:18.057Z,99478.13
2023-04-26T09:53:40.717Z,99482.94
2023-04-26T09:55:45.883Z,99469.06
2023-04-26T09:57:51.132Z,99471.66
2023-04-26T09:59:57.186Z,99473.88
2023-04-26T10:02:02.796Z,99474.34
2023-04-26T10:04:09.238Z,99478.50
2023-04-26T10:06:14.979Z,99484.59
2023-04-26T10:08:20.657Z,99480.44
2023-04-26T10:10:26.049Z,99466.38
2023-04-26T10:12:31.937Z,99478.88
2023-04-26T10:14:38.280Z,99473.66
2023-04-26T10:16:46.240Z,99471.69
2023-04-26T10:18:52.089Z,99475.44
2023-04-26T10:21:01.425Z,99465.44
2023-04-26T10:23:10.987Z,99462.38
2023-04-26T10:25:15.968Z,99471.69
2023-04-26T10:27:49.272Z,99477.97
2023-04-26T10:29:57.305Z,99484.13
2023-04-26T10:32:07.785Z,99483.91
2023-04-26T10:34:26.076Z,99475.56
2023-04-26T10:36:31.617Z,99469.78
2023-04-26T10:38:41.044Z,99469.19
2023-04-26T10:40:46.992Z,99467.13
2023-04-26T10:42:52.089Z,99462.00
2023-04-26T10:45:20.198Z,99460.41
2023-04-26T10:47:33.700Z,99464.25
2023-04-26T10:49:49.068Z,99457.63
2023-04-26T10:52:17.596Z,99462.34
2023-04-26T10:54:22.664Z,99469.09
2023-04-26T10:56:27.069Z,99479.09
2023-04-26T10:58:36.741Z,99473.00
2023-04-26T11:00:42.328Z,99475.34
2023-04-26T11:03:00.729Z,99482.84
2023-04-26T11:05:05.861Z,99476.81
2023-04-26T11:07:11.425Z,99471.09
2023-04-26T11:09:51.711Z,99481.47
2023-04-26T11:11:56.985Z,99471.31
2023-04-26T11:14:03.732Z,99472.03
2023-04-26T11:16:13.939Z,99487.28
2023-04-26T11:18:22.519Z,99488.69
2023-04-26T11:20:35.036Z,99490.44
2023-04-26T11:22:43.751Z,99486.50
2023-04-26T11:24:50.692Z,99501.19
2023-04-26T11:26:57.062Z,99489.16
2023-04-26T11:29:03.499Z,99479.03
2023-04-26T11:31:10.354Z,99504.59
2023-04-26T11:33:21.349Z,99483.22
2023-04-26T11:35:27.448Z,99477.41
2023-04-26T11:37:33.236Z,99481.78
2023-04-26T11:39:39.266Z,99477.59
2023-04-26T11:41:45.293Z,99478.56
2023-04-26T11:43:50.813Z,99474.28
2023-04-26T11:46:03.721Z,99472.53
2023-04-26T11:48:11.745Z,99477.44
2023-04-26T11:50:17.088Z,99479.25
2023-04-26T11:52:22.128Z,99476.63
2023-04-26T11:54:31.828Z,99491.25
2023-04-26T11:56:37.270Z,99498.91
2023-04-26T11:58:42.074Z,99496.38
2023-04-26T12:01:03.372Z,99502.09
2023-04-26T12:03:11.287Z,99492.50
2023-04-26T12:05:32.937Z,99512.59
2023-04-26T12:07:41.235Z,99496.50
2023-04-26T12:09:46.680Z,99503.28
2023-04-26T12:12:08.489Z,99496.97
2023-04-26T12:14:16.926Z,99477.09
2023-04-26T12:16:26.617Z,99500.56
2023-04-26T12:18:33.672Z,99495.06
2023-04-26T12:20:44.576Z,99492.72
2023-04-26T12:23:10.882Z,99476.56
2023-04-26T12:25:15.642Z,99495.16
2023-04-26T12:27:23.522Z,99494.66
2023-04-26T12:29:31.103Z,99493.00
2023-04-26T12:31:36.044Z,99499.09
2023-04-26T12:33:40.969Z,99493.16
2023-04-26T12:35:45.887Z,99498.50
2023-04-26T12:37:53.975Z,99495.53
2023-04-26T12:39:58.680Z,99501.59
2023-04-26T12:42:03.915Z,99497.00
2023-04-26T12:44:09.725Z,99497.63
2023-04-26T12:46:14.868Z,99490.22
2023-04-26T12:48:19.733Z,99517.44
2023-04-26T12:50:24.920Z,99491.22
2023-04-26T12:52:30.090Z,99492.66
2023-04-26T12:54:35.408Z,99505.09
2023-04-26T12:56:44.480Z,99511.75
2023-04-26T12:58:50.127Z,99494.38
2023-04-26T13:00:55.167Z,99496.97
2023-04-26T13:03:00.644Z,99487.88
2023-04-26T13:05:07.151Z,99495.41
2023-04-26T13:07:12.487Z,99502.59
2023-04-26T13:09:18.327Z,99497.66
2023-04-26T13:11:23.757Z,99496.91
2023-04-26T13:13:39.871Z,99492.66
2023-04-26T13:15:48.048Z,99487.34
2023-04-26T13:17:52.988Z,99478.34
2023-04-26T13:19:57.679Z,99474.03
2023-04-26T13:22:08.877Z,99480.00
2023-04-26T13:24:14.057Z,99495.44
2023-04-26T13:26:19.061Z,99499.00
2023-04-26T13:28:23.902Z,99498.09
2023-04-26T13:30:28.832Z,99500.44
2023-04-26T13:32:33.915Z,99500.41
2023-04-26T13:34:39.458Z,99508.78
2023-04-26T13:36:44.108Z,99527.84
2023-04-26T13:38:49.561Z,99512.06
2023-04-26T13:40:54.737Z,99508.22
2023-04-26T13:43:00.444Z,99516.56
2023-04-26T13:45:10.674Z,99517.28
2023-04-26T13:47:16.121Z,99507.44
2023-04-26T13:49:22.981Z,99516.34
2023-04-26T13:51:31.285Z,99506.66
2023-04-26T13:53:36.056Z,99513.41
2023-04-26T13:55:40.808Z,99504.25
2023-04-26T13:57:45.648Z,99505.00
2023-04-26T13:59:50.376Z,99507.28
2023-04-26T14:01:59.044Z,99516.13
2023-04-26T14:04:05.244Z,99518.63
2023-04-26T14:06:10.119Z,99514.59
2023-04-26T14:08:14.959Z,99516.16
2023-04-26T14:10:19.883Z,99524.50
2023-04-26T14:12:25.012Z,99515.78
2023-04-26T14:14:31.008Z,99511.59
2023-04-26T14:16:36.053Z,99515.09
2023-04-26T14:18:45.565Z,99517.31
2023-04-26T14:20:50.416Z,99513.34
2023-04-26T14:22:55.700Z,99507.09
2023-04-26T14:25:00.970Z,99509.00
2023-04-26T14:27:05.578Z,99518.56
2023-04-26T14:29:10.927Z,99510.28
2023-04-26T14:31:18.409Z,99515.47
2023-04-26T14:33:25.029Z,99523.03
2023-04-26T14:35:29.888Z,99516.66
2023-04-26T14:37:34.949Z,99507.00
2023-04-26T14:39:39.624Z,99505.00
2023-04-26T14:41:44.661Z,99497.78
2023-04-26T14:43:49.628Z,99508.25
2023-04-26T14:45:54.116Z,99503.81
2023-04-26T14:47:59.261Z,99501.59
2023-04-26T14:50:03.694Z,99518.66
2023-04-26T14:52:09.292Z,99523.25
2023-04-26T14:54:14.210Z,99509.66
2023-04-26T14:56:18.859Z,99515.22
2023-04-26T14:58:23.813Z,99526.28
2023-04-26T15:00:31.443Z,99513.88
2023-04-26T15:02:36.257Z,99525.34
2023-04-26T15:04:41.316Z,99526.19
2023-04-26T15:06:46.745Z,99521.34
2023-04-26T15:08:51.948Z,99516.00
2023-04-26T15:10:56.561Z,99524.25
2023-04-26T15:13:01.374Z,99520.22
2023-04-26T15:15:06.892Z,99515.88
2023-04-26T15:17:12.678Z,99527.50
2023-04-26T15:19:17.640Z,99536.41
2023-04-26T15:21:22.168Z,99522.22
2023-04-26T15:23:27.483Z,99523.56
2023-04-26T15:25:34.767Z,99537.66
2023-04-26T15:27:39.391Z,99530.63
2023-04-26T15:29:43.978Z,99548.00
2023-04-26T15:31:48.577Z,99530.75
2023-04-26T15:33:54.749Z,99539.69
2023-04-26T15:35:59.410Z,99550.50
2023-04-26T15:38:03.780Z,99550.50
2023-04-26T15:40:11.625Z,99543.34
2023-04-26T15:42:16.089Z,99551.03
2023-04-26T15:44:23.510Z,99548.31
2023-04-26T15:46:28.846Z,99553.25
2023-04-26T15:48:33.790Z,99572.38
2023-04-26T15:50:38.431Z,99539.13
2023-04-26T15:52:47.330Z,99558.53
2023-04-26T15:54:53.107Z,99542.84
2023-04-26T15:57:01.830Z,99551.84
2023-04-26T15:59:07.250Z,99550.22
2023-04-26T16:01:12.940Z,99553.47
2023-04-26T16:03:18.518Z,99549.53
2023-04-26T16:05:24.023Z,99556.09
2023-04-26T16:07:28.645Z,99555.25
2023-04-26T16:09:34.321Z,99556.63
2023-04-26T16:11:40.610Z,99557.72
2023-04-26T16:13:46.470Z,99555.41
2023-04-26T16:15:51.664Z,99564.66
2023-04-26T16:17:57.089Z,99564.53
2023-04-26T16:20:03.265Z,99564.25
2023-04-26T16:22:08.547Z,99564.06
2023-04-26T16:24:13.335Z,99570.19
2023-04-26T16:26:18.109Z,99571.00
2023-04-26T16:28:23.470Z,99568.50
2023-04-26T16:30:28.481Z,99556.75
2023-04-26T16:32:33.379Z,99571.75
2023-04-26T16:34:38.353Z,99572.59
2023-04-26T16:36:43.065Z,99570.97
2023-04-26T16:38:51.216Z,99570.13
2023-04-26T16:40:58.672Z,99562.75
2023-04-26T16:43:04.524Z,99580.06
2023-04-26T16:45:10.244Z,99576.69
2023-04-26T16:47:15.255Z,99585.69
2023-04-26T16:49:20.145Z,99576.38
2023-04-26T16:51:25.841Z,99569.66
2023-04-26T16:53:31.828Z,99591.06
2023-04-26T16:55:36.512Z,99588.81
2023-04-26T16:57:41.851Z,99587.97
2023-04-26T16:59:47.046Z,99577.28
2023-04-26T17:01:52.769Z,99587.63
2023-04-26T17:03:57.751Z,99590.78
2023-04-26T17:06:02.837Z,99588.13
2023-04-26T17:08:09.495Z,99594.19
2023-04-26T17:10:15.402Z,99601.63
2023-04-26T17:12:20.695Z,99592.69
2023-04-26T17:14:26.512Z,99613.47
2023-04-26T17:16:31.843Z,99593.59
2023-04-26T17:18:38.592Z,99596.44
2023-04-26T17:20:43.903Z,99601.84
2023-04-26T17:22:49.115Z,99616.66
2023-04-26T17:24:53.999Z,99611.00
2023-04-26T17:27:00.352Z,99608.47
2023-04-26T17:29:06.585Z,99613.06
2023-04-26T17:31:12.252Z,99606.59
2023-04-26T17:33:18.875Z,99611.31
2023-04-26T17:35:24.663Z,99624.22
2023-04-26T17:37:30.433Z,99625.88
2023-04-26T17:39:36.433Z,99639.50
2023-04-26T17:41:42.368Z,99628.81
2023-04-26T17:43:48.186Z,99617.25
2023-04-26T17:45:54.769Z,99622.88
2023-04-26T17:48:00.599Z,99626.84
2023-04-26T17:50:06.605Z,99629.81
2023-04-26T17:52:12.816Z,99639.28
2023-04-26T17:54:19.767Z,99647.75
2023-04-26T17:56:26.663Z,99643.97
2023-04-26T17:58:32.673Z,99641.84
2023-04-26T18:00:38.918Z,99636.47
2023-04-26T18:02:45.986Z,99644.56
2023-04-26T18:04:54.020Z,99644.41
2023-04-26T18:07:02.788Z,99644.16
2023-04-26T18:09:11.169Z,99643.56
2023-04-26T18:11:19.853Z,99643.94
2023-04-26T18:13:27.282Z,99645.09
2023-04-26T18:15:35.556Z,99662.06
2023-04-26T18:17:44.112Z,99655.84
2023-04-26T18:19:51.150Z,99656.75
2023-04-26T18:21:59.048Z,99669.88
2023-04-26T18:24:07.194Z,99677.63
2023-04-26T18:26:14.375Z,99669.22
2023-04-26T18:28:23.245Z,99673.78
2023-04-26T18:30:29.921Z,99674.34
2023-04-26T18:32:37.523Z,99670.53
2023-04-26T18:34:45.235Z,99682.81
2023-04-26T18:36:53.089Z,99670.59
2023-04-26T18:39:01.130Z,99669.69
2023-04-26T18:41:07.947Z,99680.22
2023-04-26T18:43:15.686Z,99679.03
2023-04-26T18:45:23.266Z,99681.78
2023-04-26T18:47:34.482Z,99680.34
2023-04-26T18:49:44.152Z,99699.50
2023-04-26T18:51:53.309Z,99683.59
2023-04-26T18:54:04.463Z,99690.38
2023-04-26T18:56:14.420Z,99695.03
2023-04-26T18:58:24.582Z,99700.16
2023-04-26T19:00:34.587Z,99695.31
2023-04-26T19:02:46.422Z,99701.63
2023-04-26T19:04:55.384Z,99699.16
2023-04-26T19:07:04.254Z,99720.34
2023-04-26T19:09:13.712Z,99710.88
2023-04-26T19:11:23.002Z,99709.44
2023-04-26T19:13:33.267Z,99719.75
2023-04-26T19:15:43.048Z,99719.25
2023-04-26T19:17:52.407Z,99709.38
2023-04-26T19:20:00.400Z,99701.44
2023-04-26T19:22:08.949Z,99718.22
2023-04-26T19:24:17.754Z,99717.19
2023-04-26T19:26:26.820Z,99717.47
2023-04-26T19:28:35.820Z,99716.03
2023-04-26T19:30:45.226Z,99705.34
2023-04-26T19:32:54.524Z,99705.94
2023-04-26T19:35:02.806Z,99712.53
2023-04-26T19:37:14.654Z,99716.75
2023-04-26T19:39:28.086Z,99720.13
2023-04-26T19:41:36.115Z,99716.34
2023-04-26T19:43:44.317Z,99719.41
2023-04-26T19:45:55.353Z,99721.38
2023-04-26T19:48:04.029Z,99716.84
2023-04-26T19:50:13.090Z,99721.25
2023-04-26T19:52:24.686Z,99718.91
2023-04-26T19:54:33.226Z,99720.97
2023-04-26T19:56:40.953Z,99718.06
2023-04-26T19:58:53.311Z,99728.03
2023-04-26T20:01:04.254Z,99717.25
2023-04-26T20:03:12.677Z,99737.19
2023-04-26T20:05:21.873Z,99747.69
2023-04-26T20:07:31.061Z,99734.28
2023-04-26T20:09:39.839Z,99729.38
2023-04-26T20:11:48.943Z,99745.63
2023-04-26T20:13:57.514Z,99726.69
2023-04-26T20:16:06.104Z,99733.66
2023-04-26T20:18:15.618Z,99744.50
2023-04-26T20:20:27.526Z,99743.25
2023-04-26T20:22:35.158Z,99738.69
2023-04-26T20:24:43.880Z,99745.66
2023-04-26T20:26:58.816Z,99741.97
2023-04-26T20:29:07.960Z,99748.81
2023-04-26T20:31:14.494Z,99752.34
2023-04-26T20:33:19.537Z,99745.31
2023-04-26T20:35:24.934Z,99757.50
2023-04-26T20:37:31.313Z,99751.66
2023-04-26T20:39:38.322Z,99744.69
2023-04-26T20:41:44.410Z,99768.88
2023-04-26T20:43:50.658Z,99752.38
2023-04-26T20:45:56.863Z,99748.69
2023-04-26T20:48:03.103Z,99767.03
2023-04-26T20:50:09.080Z,99751.00
2023-04-26T20:52:14.667Z,99751.59
2023-04-26T20:54:20.239Z,99742.81
2023-04-26T20:56:26.500Z,99744.81
2023-04-26T20:58:31.183Z,99748.47
2023-04-26T21:00:34.137Z,99758.56
2023-04-26T21:02:38.130Z,99745.91
2023-04-26T21:04:42.778Z,99760.09
2023-04-26T21:06:45.979Z,99749.66
2023-04-26T21:08:48.952Z,99761.63
2023-04-26T21:10:51.616Z,99762.47
2023-04-26T21:12:54.241Z,99762.72
2023-04-26T21:14:56.856Z,99761.94
2023-04-26T21:17:01.647Z,99773.94
2023-04-26T21:19:05.382Z,99780.59
2023-04-26T21:21:07.969Z,99786.34
2023-04-26T21:23:11.324Z,99773.56
2023-04-26T21:25:17.323Z,99778.31
2023-04-26T21:27:20.383Z,99778.69
2023-04-26T21:29:23.460Z,99779.59
2023-04-26T21:31:26.890Z,99784.91
2023-04-26T21:33:29.962Z,99780.09
2023-04-26T21:35:33.257Z,99781.75
2023-04-26T21:37:36.266Z,99783.41
2023-04-26T21:39:39.760Z,99769.28
2023-04-26T21:41:43.138Z,99801.00
2023-04-26T21:43:46.211Z,99783.47
2023-04-26T21:45:53.409Z,99796.69
2023-04-26T21:47:56.524Z,99791.44
2023-04-26T21:49:59.626Z,99792.06
2023-04-26T21:52:02.455Z,99787.94
2023-04-26T21:54:05.031Z,99814.94
2023-04-26T21:56:08.231Z,99788.59
2023-04-26T21:58:11.121Z,99807.03
2023-04-26T22:00:14.266Z,99805.44
2023-04-26T22:02:17.629Z,99798.19
2023-04-26T22:04:20.534Z,99821.97
2023-04-26T22:06:23.209Z,99809.72
2023-04-26T22:08:26.279Z,99813.97
2023-04-26T22:10:29.117Z,99816.94
2023-04-26T22:12:32.134Z,99809.91
2023-04-26T22:14:34.992Z,99818.31
2023-04-26T22:16:37.874Z,99823.56
2023-04-26T22:18:41.081Z,99805.41
2023-04-26T22:20:44.297Z,99828.03
2023-04-26T22:22:49.854Z,99823.84
2023-04-26T22:24:53.175Z,99820.59
2023-04-26T22:26:56.288Z,99833.00
2023-04-26T22:28:59.894Z,99826.53
2023-04-26T22:31:03.171Z,99833.66
2023-04-26T22:33:07.418Z,99838.94
2023-04-26T22:35:11.136Z,99827.94
2023-04-26T22:37:21.124Z,99828.88
2023-04-26T22:39:24.694Z,99816.63
2023-04-26T22:41:27.877Z,99836.78
2023-04-26T22:43:30.645Z,99822.72
2023-04-26T22:45:33.968Z,99835.28
2023-04-26T22:47:37.285Z,99837.84
2023-04-26T22:49:40.072Z,99831.09
2023-04-26T22:51:48.132Z,99831.88
2023-04-26T22:53:57.099Z,99840.25
2023-04-26T22:56:00.071Z,99845.38
2023-04-26T22:58:03.306Z,99837.09
2023-04-26T23:00:10.067Z,99837.84
2023-04-26T23:02:15.464Z,99853.56
2023-04-26T23:04:18.382Z,99836.97
2023-04-26T23:06:21.387Z,99845.06
2023-04-26T23:08:24.113Z,99841.53
2023-04-26T23:10:26.672Z,99838.06
2023-04-26T23:12:29.780Z,99850.63
2023-04-26T23:14:33.163Z,99836.44
2023-04-26T23:16:36.536Z,99844.19
2023-04-26T23:18:39.614Z,99852.28
2023-04-26T23:20:42.197Z,99841.31
2023-04-26T23:22:44.972Z,99844.63
2023-04-26T23:24:48.325Z,99859.66
2023-04-26T23:26:51.008Z,99849.78
2023-04-26T23:28:53.914Z,99834.19
2023-04-26T23:30:57.113Z,99849.88
2023-04-26T23:33:00.008Z,99847.31
2023-04-26T23:35:03.194Z,99848.06
2023-04-26T23:37:06.840Z,99855.75
2023-04-26T23:39:10.308Z,99861.38
2023-04-26T23:41:13.359Z,99849.78
2023-04-26T23:43:16.070Z,99854.09
2023-04-26T23:45:19.626Z,99855.91
2023-04-26T23:47:22.622Z,99852.44
2023-04-26T23:49:25.177Z,99845.31
2023-04-26T23:51:27.981Z,99849.53
2023-04-26T23:53:30.751Z,99851.72
2023-04-26T23:55:33.465Z,99850.06
2023-04-26T23:57:36.194Z,99852.34
2023-04-26T23:59:39.040Z,99852.06
